Time;durP1;ratioP1;P1;durP2;ratioP2;P2;SDS_P1;SDS_P2;PMS_P1;PMS_P2;Temp;Humidity;BMP_temperature;BMP_pressure;BME280_temperature;BME280_humidity;BME280_pressure;Samples;Min_cycle;Max_cycle;Signal;HPM_P1;HPM_P2
2021/04/15 00:00:00;;;;;;;;;;;;;;;;;;5059975;28;20391;-81
2021/04/15 00:02:25;;;;;;;;;;;;;;;;;;5062163;28;19920;-81
2021/04/15 00:04:51;;;;;;;;;;;;;;;;;;5097241;28;20022;-81
2021/04/15 00:07:16;;;;;;;;;;;;;;;;;;5096758;28;19920;-81
2021/04/15 00:09:41;;;;;;;;;;;;;;;;;;5096925;28;19915;-81
2021/04/15 00:12:07;;;;;;;;;;;;;;;;;;5096857;28;19916;-81
2021/04/15 00:14:32;;;;;;;;;;;;;;;;;;5076359;28;19934;-81
2021/04/15 00:16:57;;;;;;;;;;;;;;;;;;5044628;28;19919;-81
2021/04/15 00:19:23;;;;;;;;;;;;;;;;;;5078540;28;19943;-80
2021/04/15 00:21:48;;;;;;;;;;;;;;;;;;5079277;28;19916;-81
2021/04/15 00:24:14;;;;;;;;;;;;;;;;;;5093589;28;19920;-81
2021/04/15 00:26:39;;;;;;;;;;;;;;;;;;5079251;28;19915;-81
2021/04/15 00:29:04;;;;;;;;;;;;;;;;;;5110623;28;20336;-80
2021/04/15 00:31:30;;;;;;;;;;;;;;;;;;5079382;28;19920;-81
2021/04/15 00:33:55;;;;;;;;;;;;;;;;;;5096421;28;19919;-80
2021/04/15 00:36:20;;;;;;;;;;;;;;;;;;5096585;28;20027;-81
2021/04/15 00:38:46;;;;;;;;;;;;;;;;;;5079486;28;19911;-81
2021/04/15 00:41:11;;;;;;;;;;;;;;;;;;5066864;28;19982;-81
2021/04/15 00:43:38;;;;;;;;;;;;;;;;;;5096203;28;20347;-81
2021/04/15 00:46:22;;;;;;;;;;;;;;;;;;5079667;28;19919;-81
2021/04/15 00:48:47;;;;;;;;;;;;;;;;;;5079127;28;19969;-81
2021/04/15 00:51:14;;;;;;;;;;;;;;;;;;5075698;28;20320;-81
2021/04/15 00:53:41;;;;;;;;;;;;;;;;;;5059450;28;20350;-81
2021/04/15 00:56:06;;;;;;;;;;;;;;;;;;5076603;28;19916;-81
2021/04/15 00:58:32;;;;;;;;;;;;;;;;;;5087615;28;20447;-81
2021/04/15 01:00:57;;;;;;;;;;;;;;;;;;5058524;28;19916;-81
2021/04/15 01:03:22;;;;;;;;;;;;;;;;;;5081063;28;19916;-81
2021/04/15 01:05:48;;;;;;;;;;;;;;;;;;5075531;28;20388;-81
2021/04/15 01:08:13;;;;;;;;;;;;;;;;;;5058804;28;19923;-81
2021/04/15 01:10:40;;;;;;;;;;;;;;;;;;5058544;28;19919;-81
2021/04/15 01:13:21;;;;;;;;;;;;;;;;;;5075175;28;20259;-81
2021/04/15 01:15:50;;;;;;;;;;;;;;;;;;5091758;28;19912;-81
2021/04/15 01:18:36;;;;;;;;;;;;;;;;;;5062098;28;19915;-81
2021/04/15 01:21:17;;;;;;;;;;;;;;;;;;5078400;28;19994;-81
2021/04/15 01:24:01;;;;;;;;;;;;;;;;;;5095778;28;20014;-80
2021/04/15 01:26:29;;;;;;;;;;;;;;;;;;5076832;28;19920;-81
2021/04/15 01:29:00;;;;;;;;;;;;;;;;;;5095342;28;20010;-80
2021/04/15 01:31:49;;;;;;;;;;;;;;;;;;5095114;28;20393;-81
2021/04/15 01:34:51;;;;;;;;;;;;;;;;;;5066252;28;20285;-80
2021/04/15 01:37:35;;;;;;;;;;;;;;;;;;4994424;28;19913;-80
2021/04/15 01:40:05;;;;;;;;;;;;;;;;;;5072353;28;19950;-81
2021/04/15 01:42:32;;;;;;;;;;;;;;;;;;5085238;28;19923;-81
2021/04/15 01:45:01;;;;;;;;;;;;;;;;;;5074665;28;19972;-80
2021/04/15 01:47:34;;;;;;;;;;;;;;;;;;5057835;28;19934;-81
2021/04/15 01:50:05;;;;;;;;;;;;;;;;;;5041220;28;20293;-80
2021/04/15 01:52:30;;;;;;;;;;;;;;;;;;5084327;28;20385;-81
2021/04/15 01:54:57;;;;;;;;;;;;;;;;;;5077655;28;19972;-81
2021/04/15 01:57:28;;;;;;;;;;;;;;;;;;5077859;28;20010;-80
2021/04/15 02:00:00;;;;;;;;;;;;;;;;;;5078088;28;19916;-81
2021/04/15 02:02:36;;;;;;;;;;;;;;;;;;5091666;28;20014;-81
2021/04/15 02:05:22;;;;;;;;;;;;;;;;;;5058204;28;19935;-81
2021/04/15 02:07:50;;;;;;;;;;;;;;;;;;5056785;28;20023;-80
2021/04/15 02:10:15;;;;;;;;;;;;;;;;;;5042818;28;20025;-81
2021/04/15 02:12:41;;;;;;;;;;;;;;;;;;5077835;28;19981;-81
2021/04/15 02:15:07;;;;;;;;;;;;;;;;;;5086108;28;19923;-81
2021/04/15 02:17:33;;;;;;;;;;;;;;;;;;5091077;28;19916;-81
2021/04/15 02:19:59;;;;;;;;;;;;;;;;;;5074389;28;19927;-81
2021/04/15 02:22:38;;;;;;;;;;;;;;;;;;5074038;28;19912;-81
2021/04/15 02:25:03;;;;;;;;;;;;;;;;;;5050429;28;19916;-81
2021/04/15 02:27:42;;;;;;;;;;;;;;;;;;5075627;28;19928;-81
2021/04/15 02:30:14;;;;;;;;;;;;;;;;;;5057399;28;19919;-80
2021/04/15 02:32:41;;;;;;;;;;;;;;;;;;5092109;28;19920;-80
2021/04/15 02:35:06;;;;;;;;;;;;;;;;;;5057574;28;19995;-81
2021/04/15 02:37:34;;;;;;;;;;;;;;;;;;5092094;28;20010;-81
2021/04/15 02:40:06;;;;;;;;;;;;;;;;;;5057880;28;19912;-81
2021/04/15 02:42:32;;;;;;;;;;;;;;;;;;5065370;28;20502;-81
2021/04/15 02:45:02;;;;;;;;;;;;;;;;;;5076746;28;20314;-81
2021/04/15 02:47:29;;;;;;;;;;;;;;;;;;5094664;28;20409;-80
2021/04/15 02:49:55;;;;;;;;;;;;;;;;;;5094628;28;20269;-81
2021/04/15 02:52:22;;;;;;;;;;;;;;;;;;5077117;28;19912;-81
2021/04/15 02:54:49;;;;;;;;;;;;;;;;;;5077003;28;19920;-81
2021/04/15 02:57:21;;;;;;;;;;;;;;;;;;5077453;28;20258;-81
2021/04/15 02:59:49;;;;;;;;;;;;;;;;;;5076774;28;19961;-81
2021/04/15 03:02:25;;;;;;;;;;;;;;;;;;5076977;28;19920;-81
2021/04/15 03:04:52;;;;;;;;;;;;;;;;;;5079275;28;19922;-81
2021/04/15 03:07:18;;;;;;;;;;;;;;;;;;5060599;28;19916;-81
2021/04/15 03:09:43;;;;;;;;;;;;;;;;;;5061229;28;20012;-81
2021/04/15 03:12:19;;;;;;;;;;;;;;;;;;5044490;28;19969;-81
2021/04/15 03:14:52;;;;;;;;;;;;;;;;;;5085689;28;19959;-81
2021/04/15 03:17:17;;;;;;;;;;;;;;;;;;5097113;28;19926;-81
2021/04/15 03:19:44;;;;;;;;;;;;;;;;;;5097606;28;19994;-81
2021/04/15 03:22:14;;;;;;;;;;;;;;;;;;5092645;28;20018;-81
2021/04/15 03:24:43;;;;;;;;;;;;;;;;;;5080521;28;19960;-81
2021/04/15 03:27:24;;;;;;;;;;;;;;;;;;5062972;28;20014;-81
2021/04/15 03:29:58;;;;;;;;;;;;;;;;;;5094070;28;19912;-81
2021/04/15 03:32:27;;;;;;;;;;;;;;;;;;5095627;28;19938;-82
2021/04/15 03:34:52;;;;;;;;;;;;;;;;;;5060922;28;19921;-82
2021/04/15 03:37:19;;;;;;;;;;;;;;;;;;5076393;28;20022;-81
2021/04/15 03:39:44;;;;;;;;;;;;;;;;;;5077272;28;19916;-81
2021/04/15 03:42:23;;;;;;;;;;;;;;;;;;5042643;28;19964;-81
2021/04/15 03:44:52;;;;;;;;;;;;;;;;;;5060307;28;19916;-81
2021/04/15 03:47:29;;;;;;;;;;;;;;;;;;5060076;28;19916;-81
2021/04/15 03:49:57;;;;;;;;;;;;;;;;;;5076688;28;19912;-81
2021/04/15 03:52:24;;;;;;;;;;;;;;;;;;5076994;28;19941;-81
2021/04/15 03:54:51;;;;;;;;;;;;;;;;;;5060234;28;19919;-82
2021/04/15 03:57:17;;;;;;;;;;;;;;;;;;5077107;28;20378;-81
2021/04/15 03:59:45;;;;;;;;;;;;;;;;;;5076608;28;19916;-81
2021/04/15 04:02:15;;;;;;;;;;;;;;;;;;5059793;28;19916;-81
2021/04/15 04:04:46;;;;;;;;;;;;;;;;;;5058458;28;19927;-81
2021/04/15 04:07:15;;;;;;;;;;;;;;;;;;5059335;28;19946;-81
2021/04/15 04:09:42;;;;;;;;;;;;;;;;;;5060332;28;19912;-81
2021/04/15 04:12:08;;;;;;;;;;;;;;;;;;5076866;28;19916;-80
2021/04/15 04:14:43;;;;;;;;;;;;;;;;;;5066035;28;19955;-81
2021/04/15 04:17:13;;;;;;;;;;;;;;;;;;5079654;28;19916;-81
2021/04/15 04:19:42;;;;;;;;;;;;;;;;;;5079697;28;19918;-81
2021/04/15 04:22:20;;;;;;;;;;;;;;;;;;5096538;28;19949;-82
2021/04/15 04:24:47;;;;;;;;;;;;;;;;;;5097033;28;20285;-81
2021/04/15 04:27:16;;;;;;;;;;;;;;;;;;5080056;28;19927;-82
2021/04/15 04:29:41;;;;;;;;;;;;;;;;;;5079801;28;19918;-81
2021/04/15 04:32:09;;;;;;;;;;;;;;;;;;5115036;28;19920;-82
2021/04/15 04:34:35;;;;;;;;;;;;;;;;;;5078450;28;19962;-81
2021/04/15 04:37:00;;;;;;;;;;;;;;;;;;5076942;28;20396;-81
2021/04/15 04:39:26;;;;;;;;;;;;;;;;;;5059376;28;19920;-82
2021/04/15 04:42:10;;;;;;;;;;;;;;;;;;5062285;28;19916;-82
2021/04/15 04:44:38;;;;;;;;;;;;;;;;;;5114423;28;19923;-81
2021/04/15 04:47:09;;;;;;;;;;;;;;;;;;5079412;28;19960;-81
2021/04/15 04:49:35;;;;;;;;;;;;;;;;;;5096195;28;19919;-82
2021/04/15 04:52:16;;;;;;;;;;;;;;;;;;5095771;28;20409;-82
2021/04/15 04:54:41;;;;;;;;;;;;;;;;;;5095958;28;19911;-82
2021/04/15 04:57:13;;;;;;;;;;;;;;;;;;5078919;28;20022;-81
2021/04/15 04:59:40;;;;;;;;;;;;;;;;;;5096160;28;20020;-82
2021/04/15 05:02:05;;;;;;;;;;;;;;;;;;5078815;28;19915;-82
2021/04/15 05:04:34;;;;;;;;;;;;;;;;;;5058148;28;19923;-81
2021/04/15 05:07:00;;;;;;;;;;;;;;;;;;5061371;28;19965;-82
2021/04/15 05:09:31;;;;;;;;;;;;;;;;;;5075669;28;19916;-82
2021/04/15 05:11:56;;;;;;;;;;;;;;;;;;5075420;28;19922;-81
2021/04/15 05:14:22;;;;;;;;;;;;;;;;;;5067004;28;19920;-82
2021/04/15 05:16:48;;;;;;;;;;;;;;;;;;5075480;28;19917;-82
2021/04/15 05:19:15;;;;;;;;;;;;;;;;;;5079106;28;19919;-86
2021/04/15 05:21:42;;;;;;;;;;;;;;;;;;5062434;28;19998;-87
2021/04/15 05:24:26;;;;;;;;;;;;;;;;;;5096500;28;20281;-87
2021/04/15 05:26:52;;;;;;;;;;;;;;;;;;5060860;28;19973;-87
2021/04/15 05:29:22;;;;;;;;;;;;;;;;;;5066179;28;19919;-85
2021/04/15 05:31:50;;;;;;;;;;;;;;;;;;5047350;28;19927;-86
2021/04/15 05:34:19;;;;;;;;;;;;;;;;;;5042464;28;19927;-87
2021/04/15 05:36:45;;;;;;;;;;;;;;;;;;5063957;28;19912;-87
2021/04/15 05:39:13;;;;;;;;;;;;;;;;;;5078842;28;19951;-86
2021/04/15 05:41:57;;;;;;;;;;;;;;;;;;5062580;28;20028;-88
2021/04/15 05:44:40;;;;;;;;;;;;;;;;;;5077721;28;19916;-88
2021/04/15 05:47:15;;;;;;;;;;;;;;;;;;5071883;28;20032;-90
2021/04/15 05:49:45;;;;;;;;;;;;;;;;;;5071544;28;19912;-88
2021/04/15 05:52:32;;;;;;;;;;;;;;;;;;5079302;28;19961;-89
2021/04/15 05:55:04;;;;;;;;;;;;;;;;;;5079399;28;19916;-89
2021/04/15 05:57:33;;;;;;;;;;;;;;;;;;5062087;28;19911;-89
2021/04/15 06:00:16;;;;;;;;;;;;;;;;;;5079123;28;19977;-89
2021/04/15 06:02:44;;;;;;;;;;;;;;;;;;5062253;28;19920;-91
2021/04/15 06:05:12;;;;;;;;;;;;;;;;;;5079063;28;19998;-90
2021/04/15 06:07:38;;;;;;;;;;;;;;;;;;5078876;28;19965;-90
2021/04/15 06:10:04;;;;;;;;;;;;;;;;;;5084697;28;19912;-89
2021/04/15 06:12:29;;;;;;;;;;;;;;;;;;5059050;28;19923;-91
2021/04/15 06:14:58;;;;;;;;;;;;;;;;;;5083549;28;19919;-82
2021/04/15 06:17:31;;;;;;;;;;;;;;;;;;5088225;28;19943;-81
2021/04/15 06:20:05;;;;;;;;;;;;;;;;;;5067603;28;20003;-81
2021/04/15 06:22:30;;;;;;;;;;;;;;;;;;5077566;28;19950;-81
2021/04/15 06:25:04;;;;;;;;;;;;;;;;;;5060433;28;19966;-81
2021/04/15 06:27:29;;;;;;;;;;;;;;;;;;5094134;28;19911;-81
2021/04/15 06:30:00;;;;;;;;;;;;;;;;;;5077190;28;20296;-81
2021/04/15 06:32:32;;;;;;;;;;;;;;;;;;5094338;28;19943;-81
2021/04/15 06:34:57;;;;;;;;;;;;;;;;;;5077580;28;19923;-81
2021/04/15 06:37:27;;;;;;;;;;;;;;;;;;5089694;28;19916;-81
2021/04/15 06:39:59;;;;;;;;;;;;;;;;;;5085249;28;19926;-81
2021/04/15 06:42:31;;;;;;;;;;;;;;;;;;5087322;28;20339;-81
2021/04/15 06:45:05;;;;;;;;;;;;;;;;;;5104662;28;19965;-81
2021/04/15 06:47:33;;;;;;;;;;;;;;;;;;5079556;28;19970;-81
2021/04/15 06:50:07;;;;;;;;;;;;;;;;;;5098679;28;19919;-81
2021/04/15 06:52:39;;;;;;;;;;;;;;;;;;5064044;28;20036;-81
2021/04/15 06:55:27;;;;;;;;;;;;;;;;;;5078077;28;20307;-81
2021/04/15 06:57:58;;;;;;;;;;;;;;;;;;5076221;28;19940;-80
2021/04/15 07:00:26;;;;;;;;;;;;;;;;;;5058394;28;19962;-81
2021/04/15 07:02:54;;;;;;;;;;;;;;;;;;5064211;28;19965;-81
2021/04/15 07:05:29;;;;;;;;;;;;;;;;;;5098094;28;19919;-80
2021/04/15 07:08:09;;;;;;;;;;;;;;;;;;5064364;28;19912;-81
2021/04/15 07:11:01;;;;;;;;;;;;;;;;;;5080919;28;19915;-81
2021/04/15 07:13:36;;;;;;;;;;;;;;;;;;5076501;28;20416;-82
2021/04/15 07:16:21;;;;;;;;;;;;;;;;;;5074549;28;19912;-81
2021/04/15 07:18:53;;;;;;;;;;;;;;;;;;5074087;28;19916;-81
2021/04/15 07:21:37;;;;;;;;;;;;;;;;;;5077295;28;20003;-81
2021/04/15 07:24:15;;;;;;;;;;;;;;;;;;5081173;28;19924;-81
2021/04/15 07:26:43;;;;;;;;;;;;;;;;;;5093663;28;19912;-80
2021/04/15 07:29:29;;;;;;;;;;;;;;;;;;5075702;28;19919;-81
2021/04/15 07:31:54;;;;;;;;;;;;;;;;;;5069582;28;19916;-81
2021/04/15 07:34:32;;;;;;;;;;;;;;;;;;5077525;28;19939;-80
2021/04/15 07:37:04;;;;;;;;;;;;;;;;;;5076888;28;20136;-80
2021/04/15 07:39:29;;;;;;;;;;;;;;;;;;5076758;28;19916;-79
2021/04/15 07:42:13;;;;;;;;;;;;;;;;;;5076767;28;19920;-80
2021/04/15 07:44:46;;;;;;;;;;;;;;;;;;5077585;28;19912;-80
2021/04/15 07:47:30;;;;;;;;;;;;;;;;;;5060398;28;20340;-80
2021/04/15 07:50:14;;;;;;;;;;;;;;;;;;5067184;28;19912;-79
2021/04/15 07:52:45;;;;;;;;;;;;;;;;;;5095147;28;19919;-80
2021/04/15 07:55:13;;;;;;;;;;;;;;;;;;5076805;28;20297;-80
2021/04/15 07:57:53;;;;;;;;;;;;;;;;;;5066408;28;19926;-81
2021/04/15 08:00:21;;;;;;;;;;;;;;;;;;5097318;28;19915;-81
2021/04/15 08:03:01;;;;;;;;;;;;;;;;;;5092523;28;19995;-82
2021/04/15 08:05:46;;;;;;;;;;;;;;;;;;5066986;28;19912;-80
2021/04/15 08:08:29;;;;;;;;;;;;;;;;;;5063476;28;19912;-80
2021/04/15 08:11:02;;;;;;;;;;;;;;;;;;5094769;28;19912;-81
2021/04/15 08:13:43;;;;;;;;;;;;;;;;;;5078965;28;19919;-80
2021/04/15 08:16:29;;;;;;;;;;;;;;;;;;5082210;28;19970;-79
2021/04/15 08:18:55;;;;;;;;;;;;;;;;;;5094973;28;19911;-80
2021/04/15 08:21:23;;;;;;;;;;;;;;;;;;5069096;28;20403;-77
2021/04/15 08:24:08;;;;;;;;;;;;;;;;;;5084364;28;19939;-80
2021/04/15 08:26:52;;;;;;;;;;;;;;;;;;5085687;28;19927;-79
2021/04/15 08:29:36;;;;;;;;;;;;;;;;;;5103238;28;19951;-79
2021/04/15 08:32:04;;;;;;;;;;;;;;;;;;5063041;28;19916;-79
2021/04/15 08:34:31;;;;;;;;;;;;;;;;;;5059283;28;19916;-78
2021/04/15 08:36:57;;;;;;;;;;;;;;;;;;5050295;28;19916;-80
2021/04/15 08:39:42;;;;;;;;;;;;;;;;;;5101765;28;20019;-77
2021/04/15 08:42:30;;;;;;;;;;;;;;;;;;5068376;28;20362;-77
2021/04/15 08:44:55;;;;;;;;;;;;;;;;;;5069270;28;19912;-79
2021/04/15 08:47:30;;;;;;;;;;;;;;;;;;5102429;28;19912;-78
2021/04/15 08:50:11;;;;;;;;;;;;;;;;;;5083864;28;19916;-78
2021/04/15 08:52:44;;;;;;;;;;;;;;;;;;5102826;28;19959;-77
2021/04/15 08:55:15;;;;;;;;;;;;;;;;;;5065877;28;19998;-77
2021/04/15 08:57:43;;;;;;;;;;;;;;;;;;5103069;28;20032;-77
2021/04/15 09:00:08;;;;;;;;;;;;;;;;;;5067788;28;20383;-77
2021/04/15 09:02:36;;;;;;;;;;;;;;;;;;5067223;28;19973;-78
2021/04/15 09:05:05;;;;;;;;;;;;;;;;;;5083835;28;19919;-78
2021/04/15 09:07:55;;;;;;;;;;;;;;;;;;5083859;28;19916;-78
2021/04/15 09:10:26;;;;;;;;;;;;;;;;;;5084198;28;20369;-78
2021/04/15 09:13:08;;;;;;;;;;;;;;;;;;5084907;28;19919;-78
2021/04/15 09:15:39;;;;;;;;;;;;;;;;;;5058726;28;19916;-77
2021/04/15 09:18:34;;;;;;;;;;;;;;;;;;5067411;28;19954;-78
2021/04/15 09:21:14;;;;;;;;;;;;;;;;;;5071907;28;19918;-78
2021/04/15 09:23:46;;;;;;;;;;;;;;;;;;5102165;28;19920;-78
2021/04/15 09:26:18;;;;;;;;;;;;;;;;;;5075615;28;19912;-78
2021/04/15 09:28:53;;;;;;;;;;;;;;;;;;5066909;28;19944;-78
2021/04/15 09:31:50;;;;;;;;;;;;;;;;;;5083472;28;19916;-78
2021/04/15 09:34:30;;;;;;;;;;;;;;;;;;5079533;28;20324;-78
2021/04/15 09:37:05;;;;;;;;;;;;;;;;;;5083432;28;19951;-78
2021/04/15 09:39:35;;;;;;;;;;;;;;;;;;5050530;28;20395;-78
2021/04/15 09:42:09;;;;;;;;;;;;;;;;;;5057900;28;19951;-78
2021/04/15 09:44:36;;;;;;;;;;;;;;;;;;5084096;28;20259;-78
2021/04/15 09:47:25;;;;;;;;;;;;;;;;;;5066842;28;19919;-78
2021/04/15 09:50:06;;;;;;;;;;;;;;;;;;5073926;28;20289;-78
2021/04/15 09:52:48;;;;;;;;;;;;;;;;;;5083202;28;21402;-78
2021/04/15 09:55:24;;;;;;;;;;;;;;;;;;5102465;28;19916;-78
2021/04/15 09:57:56;;;;;;;;;;;;;;;;;;5083160;28;19924;-78
2021/04/15 10:00:28;;;;;;;;;;;;;;;;;;5102006;28;19912;-78
2021/04/15 10:03:29;;;;;;;;;;;;;;;;;;5083901;28;20357;-78
2021/04/15 10:05:54;;;;;;;;;;;;;;;;;;5056031;28;19921;-78
2021/04/15 10:08:35;;;;;;;;;;;;;;;;;;5076826;28;19912;-78
2021/04/15 10:11:00;;;;;;;;;;;;;;;;;;5101555;28;19920;-78
2021/04/15 10:13:36;;;;;;;;;;;;;;;;;;5082818;28;19942;-78
2021/04/15 10:16:06;;;;;;;;;;;;;;;;;;5083334;28;19911;-78
2021/04/15 10:18:35;;;;;;;;;;;;;;;;;;5083743;28;19912;-78
2021/04/15 10:21:00;;;;;;;;;;;;;;;;;;5083275;28;20428;-78
2021/04/15 10:23:29;;;;;;;;;;;;;;;;;;5100426;28;19950;-79
2021/04/15 10:25:56;;;;;;;;;;;;;;;;;;5082366;28;19916;-78
2021/04/15 10:28:41;;;;;;;;;;;;;;;;;;5066953;28;19943;-78
2021/04/15 10:31:16;;;;;;;;;;;;;;;;;;5081649;28;20335;-78
2021/04/15 10:33:47;;;;;;;;;;;;;;;;;;5082414;28;20311;-78
2021/04/15 10:36:15;;;;;;;;;;;;;;;;;;5100783;28;19919;-78
2021/04/15 10:38:49;;;;;;;;;;;;;;;;;;5101474;28;19919;-78
2021/04/15 10:41:37;;;;;;;;;;;;;;;;;;5100541;28;20440;-78
2021/04/15 10:44:06;;;;;;;;;;;;;;;;;;5082250;28;20006;-77
2021/04/15 10:46:37;;;;;;;;;;;;;;;;;;5100806;28;19919;-78
2021/04/15 10:49:21;;;;;;;;;;;;;;;;;;5066773;28;19959;-78
2021/04/15 10:51:46;;;;;;;;;;;;;;;;;;5100729;28;19917;-78
2021/04/15 10:54:40;;;;;;;;;;;;;;;;;;5100801;28;20273;-78
2021/04/15 10:57:13;;;;;;;;;;;;;;;;;;5098890;28;19920;-78
2021/04/15 10:59:39;;;;;;;;;;;;;;;;;;5083385;28;19912;-78
2021/04/15 11:02:21;;;;;;;;;;;;;;;;;;5100148;28;19931;-79
2021/04/15 11:04:46;;;;;;;;;;;;;;;;;;5082322;28;19920;-79
2021/04/15 11:07:22;;;;;;;;;;;;;;;;;;5082642;28;19912;-79
2021/04/15 11:09:48;;;;;;;;;;;;;;;;;;5082208;28;19920;-79
2021/04/15 11:12:13;;;;;;;;;;;;;;;;;;5066660;28;19950;-80
2021/04/15 11:14:40;;;;;;;;;;;;;;;;;;5100680;28;19958;-79
2021/04/15 11:17:20;;;;;;;;;;;;;;;;;;5066141;28;19920;-79
2021/04/15 11:19:46;;;;;;;;;;;;;;;;;;5081938;28;20427;-79
2021/04/15 11:22:19;;;;;;;;;;;;;;;;;;5081940;28;19924;-79
2021/04/15 11:24:44;;;;;;;;;;;;;;;;;;5067721;28;19911;-79
2021/04/15 11:27:10;;;;;;;;;;;;;;;;;;5086296;28;19926;-79
2021/04/15 11:29:35;;;;;;;;;;;;;;;;;;5086993;28;19919;-79
2021/04/15 11:32:01;;;;;;;;;;;;;;;;;;5086556;28;19916;-80
2021/04/15 11:34:26;;;;;;;;;;;;;;;;;;5059993;28;19919;-79
2021/04/15 11:36:59;;;;;;;;;;;;;;;;;;5069354;28;19912;-80
2021/04/15 11:39:26;;;;;;;;;;;;;;;;;;5069367;28;20018;-78
2021/04/15 11:41:54;;;;;;;;;;;;;;;;;;5053360;28;20381;-79
2021/04/15 11:44:30;;;;;;;;;;;;;;;;;;5086398;28;19912;-79
2021/04/15 11:47:00;;;;;;;;;;;;;;;;;;5069678;28;19920;-81
2021/04/15 11:49:32;;;;;;;;;;;;;;;;;;5060125;28;19931;-79
2021/04/15 11:52:06;;;;;;;;;;;;;;;;;;5069146;28;19981;-79
2021/04/15 11:54:36;;;;;;;;;;;;;;;;;;5102617;28;19912;-83
2021/04/15 11:57:33;;;;;;;;;;;;;;;;;;5073964;28;19959;-82
2021/04/15 12:00:02;;;;;;;;;;;;;;;;;;5050740;28;19919;-81
2021/04/15 12:02:43;;;;;;;;;;;;;;;;;;5068766;28;20763;-82
2021/04/15 12:05:30;;;;;;;;;;;;;;;;;;5102347;28;19911;-82
2021/04/15 12:08:16;;;;;;;;;;;;;;;;;;5060323;28;19959;-80
2021/04/15 12:11:01;;;;;;;;;;;;;;;;;;5068007;28;20281;-81
2021/04/15 12:13:29;;;;;;;;;;;;;;;;;;5071126;28;20147;-82
2021/04/15 12:16:16;;;;;;;;;;;;;;;;;;5074568;28;19920;-82
2021/04/15 12:18:44;;;;;;;;;;;;;;;;;;5085625;28;19912;-83
2021/04/15 12:21:17;;;;;;;;;;;;;;;;;;5085619;28;19915;-81
2021/04/15 12:23:53;;;;;;;;;;;;;;;;;;5085117;28;19916;-82
2021/04/15 12:26:31;;;;;;;;;;;;;;;;;;5058133;28;19966;-81
2021/04/15 12:28:59;;;;;;;;;;;;;;;;;;5085153;28;19912;-82
2021/04/15 12:31:25;;;;;;;;;;;;;;;;;;5068143;28;19924;-80
2021/04/15 12:34:09;;;;;;;;;;;;;;;;;;5068235;28;19916;-80
2021/04/15 12:36:35;;;;;;;;;;;;;;;;;;5083501;28;19916;-80
2021/04/15 12:39:04;;;;;;;;;;;;;;;;;;5069124;28;19916;-81
2021/04/15 12:41:31;;;;;;;;;;;;;;;;;;5085306;28;19920;-81
2021/04/15 12:44:02;;;;;;;;;;;;;;;;;;5085617;28;19916;-81
2021/04/15 12:46:27;;;;;;;;;;;;;;;;;;5068147;28;19919;-81
2021/04/15 12:48:55;;;;;;;;;;;;;;;;;;5076361;28;20290;-81
2021/04/15 12:51:22;;;;;;;;;;;;;;;;;;5084969;28;19919;-80
2021/04/15 12:53:47;;;;;;;;;;;;;;;;;;5093133;28;19919;-80
2021/04/15 12:56:24;;;;;;;;;;;;;;;;;;5084789;28;19916;-80
2021/04/15 12:58:49;;;;;;;;;;;;;;;;;;5090554;28;20012;-82
2021/04/15 13:01:14;;;;;;;;;;;;;;;;;;5080797;28;19957;-82
2021/04/15 13:03:41;;;;;;;;;;;;;;;;;;5057131;28;19935;-84
2021/04/15 13:06:16;;;;;;;;;;;;;;;;;;5075272;28;19911;-79
2021/04/15 13:08:42;;;;;;;;;;;;;;;;;;5076072;28;19912;-80
2021/04/15 13:11:07;;;;;;;;;;;;;;;;;;5059484;28;19912;-85
2021/04/15 13:13:36;;;;;;;;;;;;;;;;;;5067474;28;20007;-84
2021/04/15 13:16:03;;;;;;;;;;;;;;;;;;5068082;28;19967;-84
2021/04/15 13:18:33;;;;;;;;;;;;;;;;;;5067014;28;20028;-87
2021/04/15 13:21:12;;;;;;;;;;;;;;;;;;5073937;28;19916;-83
2021/04/15 13:23:38;;;;;;;;;;;;;;;;;;5058792;28;19928;-86
2021/04/15 13:26:03;;;;;;;;;;;;;;;;;;5075656;28;19916;-82
2021/04/15 13:28:46;;;;;;;;;;;;;;;;;;5083281;28;19912;-81
2021/04/15 13:31:31;;;;;;;;;;;;;;;;;;5067188;28;19922;-82
2021/04/15 13:33:58;;;;;;;;;;;;;;;;;;5101276;28;20420;-81
2021/04/15 13:36:23;;;;;;;;;;;;;;;;;;5067699;28;19915;-82
2021/04/15 13:38:58;;;;;;;;;;;;;;;;;;5083986;28;19919;-81
2021/04/15 13:41:29;;;;;;;;;;;;;;;;;;5102126;28;19916;-82
2021/04/15 13:43:57;;;;;;;;;;;;;;;;;;5083774;28;19942;-81
2021/04/15 13:46:23;;;;;;;;;;;;;;;;;;5083708;28;19918;-83
2021/04/15 13:48:50;;;;;;;;;;;;;;;;;;5066768;28;20266;-83
2021/04/15 13:51:20;;;;;;;;;;;;;;;;;;5084361;28;19935;-82
2021/04/15 13:53:49;;;;;;;;;;;;;;;;;;5082812;28;19927;-82
2021/04/15 13:56:35;;;;;;;;;;;;;;;;;;5073765;28;20400;-82
2021/04/15 13:59:00;;;;;;;;;;;;;;;;;;5068884;28;19920;-82
2021/04/15 14:01:35;;;;;;;;;;;;;;;;;;5054040;28;19927;-83
2021/04/15 14:04:00;;;;;;;;;;;;;;;;;;5066675;28;19947;-81
2021/04/15 14:06:26;;;;;;;;;;;;;;;;;;5058877;28;20382;-82
2021/04/15 14:09:21;;;;;;;;;;;;;;;;;;5075078;28;19912;-81
2021/04/15 14:11:48;;;;;;;;;;;;;;;;;;5085637;28;19916;-82
2021/04/15 14:14:18;;;;;;;;;;;;;;;;;;5081294;28;20444;-80
2021/04/15 14:16:44;;;;;;;;;;;;;;;;;;5081532;28;19923;-81
2021/04/15 14:19:24;;;;;;;;;;;;;;;;;;5082385;28;19924;-81
2021/04/15 14:21:50;;;;;;;;;;;;;;;;;;5058474;28;19911;-81
2021/04/15 14:24:16;;;;;;;;;;;;;;;;;;5082868;28;19926;-81
2021/04/15 14:26:42;;;;;;;;;;;;;;;;;;5082795;28;20008;-81
2021/04/15 14:29:11;;;;;;;;;;;;;;;;;;5066093;28;20021;-80
2021/04/15 14:31:41;;;;;;;;;;;;;;;;;;5073739;28;19923;-80
2021/04/15 14:34:25;;;;;;;;;;;;;;;;;;5065892;28;19977;-81
2021/04/15 14:36:55;;;;;;;;;;;;;;;;;;5099940;28;19916;-81
2021/04/15 14:39:22;;;;;;;;;;;;;;;;;;5063911;28;19916;-80
2021/04/15 14:41:55;;;;;;;;;;;;;;;;;;5047069;28;19916;-81
2021/04/15 14:44:20;;;;;;;;;;;;;;;;;;5089454;28;19920;-81
2021/04/15 14:46:46;;;;;;;;;;;;;;;;;;5083580;28;19923;-80
2021/04/15 14:49:32;;;;;;;;;;;;;;;;;;5082648;28;19912;-80
2021/04/15 14:52:09;;;;;;;;;;;;;;;;;;5081890;28;19919;-81
2021/04/15 14:54:35;;;;;;;;;;;;;;;;;;5082316;28;20041;-80
2021/04/15 14:57:01;;;;;;;;;;;;;;;;;;5066720;28;19965;-80
2021/04/15 14:59:30;;;;;;;;;;;;;;;;;;5083999;28;19935;-81
2021/04/15 15:02:15;;;;;;;;;;;;;;;;;;5060617;28;19916;-81
2021/04/15 15:04:40;;;;;;;;;;;;;;;;;;5069965;28;19970;-81
2021/04/15 15:07:07;;;;;;;;;;;;;;;;;;5069053;28;19990;-83
2021/04/15 15:09:32;;;;;;;;;;;;;;;;;;5052602;28;19926;-85
2021/04/15 15:11:58;;;;;;;;;;;;;;;;;;5075523;28;20319;-81
2021/04/15 15:14:26;;;;;;;;;;;;;;;;;;5072301;28;20396;-87
2021/04/15 15:16:51;;;;;;;;;;;;;;;;;;5087478;28;19920;-84
2021/04/15 15:19:22;;;;;;;;;;;;;;;;;;5072199;28;19916;-83
2021/04/15 15:21:51;;;;;;;;;;;;;;;;;;5086997;28;19918;-81
2021/04/15 15:24:20;;;;;;;;;;;;;;;;;;5060494;28;19922;-80
2021/04/15 15:26:45;;;;;;;;;;;;;;;;;;5066820;28;19943;-80
2021/04/15 15:29:20;;;;;;;;;;;;;;;;;;5087476;28;20378;-80
2021/04/15 15:31:46;;;;;;;;;;;;;;;;;;5070983;28;19969;-80
2021/04/15 15:34:21;;;;;;;;;;;;;;;;;;5060166;28;19923;-80
2021/04/15 15:36:46;;;;;;;;;;;;;;;;;;5059341;28;19912;-80
2021/04/15 15:39:34;;;;;;;;;;;;;;;;;;5082646;28;20014;-80
2021/04/15 15:41:59;;;;;;;;;;;;;;;;;;5085634;28;19912;-80
2021/04/15 15:44:26;;;;;;;;;;;;;;;;;;5069656;28;19985;-80
2021/04/15 15:46:52;;;;;;;;;;;;;;;;;;5068432;28;19916;-80
2021/04/15 15:49:18;;;;;;;;;;;;;;;;;;5084539;28;19916;-80
2021/04/15 15:52:09;;;;;;;;;;;;;;;;;;5093521;23;20002;-80
2021/04/15 15:55:10;;;;;;;;;;;;;;;;;;5098558;28;20281;-80
2021/04/15 15:57:38;;;;;;;;;;;;;;;;;;5061412;28;19920;-81
2021/04/15 16:00:08;;;;;;;;;;;;;;;;;;5079181;28;19922;-80
2021/04/15 16:02:44;;;;;;;;;;;;;;;;;;5074995;28;19916;-80
2021/04/15 16:05:09;;;;;;;;;;;;;;;;;;5075115;28;20443;-80
2021/04/15 16:07:38;;;;;;;;;;;;;;;;;;5073141;28;19923;-78
2021/04/15 16:10:07;;;;;;;;;;;;;;;;;;5074221;28;19976;-80
2021/04/15 16:12:32;;;;;;;;;;;;;;;;;;5074279;28;19912;-79
2021/04/15 16:14:58;;;;;;;;;;;;;;;;;;5090475;28;19924;-78
2021/04/15 16:17:24;;;;;;;;;;;;;;;;;;5073180;28;19916;-81
2021/04/15 16:19:49;;;;;;;;;;;;;;;;;;5072689;28;19916;-80
2021/04/15 16:22:16;;;;;;;;;;;;;;;;;;5072615;28;19932;-80
2021/04/15 16:24:41;;;;;;;;;;;;;;;;;;5072894;28;19912;-80
2021/04/15 16:27:07;;;;;;;;;;;;;;;;;;5056499;28;19919;-80
2021/04/15 16:29:32;;;;;;;;;;;;;;;;;;5074817;28;19961;-81
2021/04/15 16:31:58;;;;;;;;;;;;;;;;;;5057632;28;19920;-80
2021/04/15 16:34:25;;;;;;;;;;;;;;;;;;5074526;28;19920;-80
2021/04/15 16:36:51;;;;;;;;;;;;;;;;;;5056321;28;20403;-79
2021/04/15 16:39:18;;;;;;;;;;;;;;;;;;5074605;28;20402;-84
2021/04/15 16:41:44;;;;;;;;;;;;;;;;;;5058737;28;19916;-89
2021/04/15 16:44:12;;;;;;;;;;;;;;;;;;5060032;28;19923;-90
2021/04/15 16:46:37;;;;;;;;;;;;;;;;;;5076681;28;19923;-87
2021/04/15 16:49:04;;;;;;;;;;;;;;;;;;5059064;28;19920;-86
2021/04/15 16:51:29;;;;;;;;;;;;;;;;;;5059829;28;19927;-88
2021/04/15 16:53:55;;;;;;;;;;;;;;;;;;5078748;28;19912;-87
2021/04/15 16:56:21;;;;;;;;;;;;;;;;;;5062644;28;19916;-87
2021/04/15 16:58:48;;;;;;;;;;;;;;;;;;5075707;28;19912;-86
2021/04/15 17:01:14;;;;;;;;;;;;;;;;;;5075849;28;19916;-87
2021/04/15 17:03:41;;;;;;;;;;;;;;;;;;5058755;28;19969;-85
2021/04/15 17:06:14;;;;;;;;;;;;;;;;;;5063677;28;20006;-89
2021/04/15 17:08:53;;;;;;;;;;;;;;;;;;5056934;28;20391;-87
2021/04/15 17:11:23;;;;;;;;;;;;;;;;;;5075889;28;20387;-89
2021/04/15 17:13:48;;;;;;;;;;;;;;;;;;5057433;28;19927;-89